Time;durP1;ratioP1;P1;durP2;ratioP2;P2;SDS_P1;SDS_P2;PMS_P1;PMS_P2;Temp;Humidity;BMP_temperature;BMP_pressure;BME280_temperature;BME280_humidity;BME280_pressure;Samples;Min_cycle;Max_cycle;Signal;HPM_P1;HPM_P2
2023/11/23 00:01:15;;;;;;;7.50;2.83;;;;;;;5.45;80.31;101179.38;5182411;28;20018;-72
2023/11/23 00:03:45;;;;;;;5.88;2.20;;;;;;;5.53;80.47;101174.97;5202978;28;20170;-72
2023/11/23 00:06:16;;;;;;;4.82;2.10;;;;;;;5.64;79.63;101173.19;5201261;28;20035;-72
2023/11/23 00:08:46;;;;;;;4.88;1.73;;;;;;;5.55;79.87;101168.94;5204684;28;20067;-70
2023/11/23 00:11:16;;;;;;;4.07;1.85;;;;;;;5.64;79.77;101158.53;5202444;28;20391;-70
2023/11/23 00:13:49;;;;;;;5.30;1.90;;;;;;;5.69;79.96;101161.06;5202589;28;20025;-72
2023/11/23 00:16:19;;;;;;;3.42;1.75;;;;;;;5.68;79.98;101151.56;5203624;28;20040;-73
2023/11/23 00:18:50;;;;;;;4.18;2.10;;;;;;;5.56;80.25;101154.25;5204214;28;20029;-73
2023/11/23 00:21:20;;;;;;;5.78;2.28;;;;;;;5.52;80.39;101157.72;5201280;28;20021;-72
2023/11/23 00:23:53;;;;;;;5.15;2.03;;;;;;;5.64;80.44;101161.13;5184235;28;20037;-72
2023/11/23 00:26:23;;;;;;;7.35;1.92;;;;;;;5.59;80.24;101142.09;5201875;28;20053;-73
2023/11/23 00:28:54;;;;;;;6.20;2.00;;;;;;;5.65;80.54;101138.63;5202351;28;20656;-73
2023/11/23 00:31:25;;;;;;;6.40;1.88;;;;;;;5.64;80.73;101139.50;5198052;28;20053;-70
2023/11/23 00:33:55;;;;;;;6.43;2.35;;;;;;;5.54;81.30;101127.47;5205004;28;20391;-72
2023/11/23 00:36:25;;;;;;;3.70;1.92;;;;;;;5.49;81.74;101118.84;5205079;28;20071;-72
2023/11/23 00:38:56;;;;;;;3.92;1.83;;;;;;;5.57;81.44;101111.91;5203207;28;20025;-72
2023/11/23 00:41:26;;;;;;;5.50;2.03;;;;;;;5.55;81.64;101116.25;5202350;28;20037;-73
2023/11/23 00:43:57;;;;;;;4.38;1.83;;;;;;;5.62;81.80;101115.31;5203917;28;20033;-72
2023/11/23 00:46:27;;;;;;;5.47;2.40;;;;;;;5.64;81.81;101113.56;5202350;28;20040;-72
2023/11/23 00:48:59;;;;;;;6.97;2.13;;;;;;;5.61;82.69;101108.41;5185101;28;20025;-73
2023/11/23 00:51:32;;;;;;;3.70;2.05;;;;;;;5.69;82.78;101106.59;5192205;28;20108;-72
2023/11/23 00:54:04;;;;;;;3.60;2.00;;;;;;;5.67;83.01;101109.22;5203567;28;20506;-72
2023/11/23 00:56:34;;;;;;;5.25;2.40;;;;;;;5.76;82.95;101097.94;5209327;28;20135;-72
2023/11/23 00:59:04;;;;;;;5.45;2.42;;;;;;;5.76;83.64;101098.78;5205604;28;20024;-71
2023/11/23 01:01:35;;;;;;;4.78;2.35;;;;;;;5.70;83.54;101097.94;5207144;28;20246;-72
2023/11/23 01:04:05;;;;;;;4.80;2.03;;;;;;;5.74;83.23;101090.16;5202631;28;20029;-70
2023/11/23 01:06:36;;;;;;;5.28;2.15;;;;;;;5.72;83.85;101085.88;5205446;28;20608;-72
2023/11/23 01:09:06;;;;;;;3.70;2.10;;;;;;;5.79;84.01;101091.03;5206011;28;20028;-71
2023/11/23 01:11:36;;;;;;;5.20;2.45;;;;;;;5.85;84.05;101087.50;5207295;28;20063;-72
2023/11/23 01:14:08;;;;;;;7.18;2.38;;;;;;;5.91;84.53;101082.28;5181039;28;20025;-69
2023/11/23 01:16:38;;;;;;;6.72;2.20;;;;;;;5.87;84.90;101076.25;5187752;28;20483;-72
2023/11/23 01:19:09;;;;;;;5.80;2.40;;;;;;;5.84;85.64;101073.69;5205381;28;20026;-73
2023/11/23 01:21:39;;;;;;;6.75;2.50;;;;;;;5.93;85.40;101070.16;5206276;28;20862;-72
2023/11/23 01:24:11;;;;;;;6.47;2.85;;;;;;;5.89;86.05;101079.69;5207825;28;20052;-72
2023/11/23 01:26:42;;;;;;;6.43;2.60;;;;;;;5.94;85.88;101082.25;5205035;28;20025;-72
2023/11/23 01:29:12;;;;;;;3.95;2.40;;;;;;;6.00;85.97;101070.09;5205455;28;20483;-70
2023/11/23 01:31:42;;;;;;;5.38;2.50;;;;;;;6.05;86.65;101064.88;5205850;28;20096;-72
2023/11/23 01:34:12;;;;;;;5.05;2.53;;;;;;;6.11;87.10;101049.22;5202898;28;20025;-72
2023/11/23 01:36:43;;;;;;;4.25;2.15;;;;;;;6.03;86.68;101046.69;5187875;28;20028;-73
2023/11/23 01:39:14;;;;;;;5.70;2.63;;;;;;;6.07;87.59;101055.31;5203842;28;20056;-72
2023/11/23 01:41:44;;;;;;;7.38;2.63;;;;;;;6.13;87.72;101048.34;5205560;28;20028;-72
2023/11/23 01:44:14;;;;;;;9.25;3.10;;;;;;;6.17;87.44;101033.59;5202790;28;20450;-73
2023/11/23 01:46:45;;;;;;;8.55;2.85;;;;;;;6.18;88.04;101041.38;5205545;28;20548;-72
2023/11/23 01:49:18;;;;;;;6.15;2.55;;;;;;;6.19;89.00;101037.88;5206780;28;20057;-72
2023/11/23 01:51:49;;;;;;;4.82;2.50;;;;;;;6.24;89.31;101032.66;5204326;28;20373;-72
2023/11/23 01:54:19;;;;;;;5.95;2.55;;;;;;;6.37;89.69;101034.22;5205811;28;20537;-72
2023/11/23 01:56:53;;;;;;;7.57;2.88;;;;;;;6.33;89.60;101029.94;5187701;28;20029;-72
2023/11/23 01:59:26;;;;;;;5.93;2.85;;;;;;;6.27;91.30;101022.25;5204356;28;20026;-71
2023/11/23 02:01:57;;;;;;;8.10;3.08;;;;;;;6.40;90.69;101022.06;5205080;28;20064;-72
2023/11/23 02:04:27;;;;;;;7.90;3.00;;;;;;;6.36;90.98;101017.81;5203093;28;20064;-72
2023/11/23 02:06:59;;;;;;;8.60;3.08;;;;;;;6.36;91.98;101007.41;5205871;28;20024;-72
2023/11/23 02:09:30;;;;;;;7.20;3.03;;;;;;;6.37;92.37;101013.47;5204461;28;20128;-72
2023/11/23 02:12:01;;;;;;;7.90;3.53;;;;;;;6.38;91.80;101015.16;5204256;28;20045;-72
2023/11/23 02:14:33;;;;;;;6.97;3.50;;;;;;;6.39;92.25;101009.97;5204057;28;20143;-72
2023/11/23 02:17:17;;;;;;;7.07;3.38;;;;;;;6.41;92.54;101012.56;5205537;28;20487;-72
2023/11/23 02:19:49;;;;;;;6.97;2.95;;;;;;;6.46;92.63;101005.56;5205282;28;20025;-72
2023/11/23 02:22:19;;;;;;;6.57;2.95;;;;;;;6.43;93.90;101005.63;5204706;28;20025;-72
2023/11/23 02:24:50;;;;;;;7.18;3.47;;;;;;;6.30;94.97;100998.84;5205537;28;20375;-72
2023/11/23 02:27:20;;;;;;;6.20;3.53;;;;;;;6.41;95.93;101002.19;5203975;28;20366;-72
2023/11/23 02:29:50;;;;;;;7.60;4.30;;;;;;;6.31;97.26;101003.16;5204862;28;20055;-73
2023/11/23 02:32:21;;;;;;;10.50;3.83;;;;;;;6.29;99.40;100997.97;5204007;28;20029;-72
2023/11/23 02:34:51;;;;;;;7.55;3.80;;;;;;;6.25;99.85;100990.25;5186916;28;20060;-72
2023/11/23 02:37:21;;;;;;;8.88;4.38;;;;;;;6.32;100.00;100991.91;5202609;28;20473;-72
2023/11/23 02:39:51;;;;;;;11.55;4.15;;;;;;;6.34;100.00;100985.81;5206217;28;20022;-73
2023/11/23 02:42:22;;;;;;;8.82;4.43;;;;;;;6.39;99.85;100976.22;5206573;28;20033;-72
2023/11/23 02:44:52;;;;;;;8.45;3.88;;;;;;;6.36;99.74;100975.41;5205001;28;20064;-72
2023/11/23 02:47:22;;;;;;;9.80;4.40;;;;;;;6.35;99.55;100976.28;5203894;28;20398;-73
2023/11/23 02:49:53;;;;;;;9.73;4.47;;;;;;;6.38;98.79;100981.44;5204785;28;20095;-73
2023/11/23 02:52:24;;;;;;;7.47;3.55;;;;;;;6.40;97.87;100984.91;5202843;28;20022;-68
2023/11/23 02:54:55;;;;;;;7.55;4.03;;;;;;;6.39;97.31;100975.38;5203823;28;20029;-72
2023/11/23 02:57:25;;;;;;;7.35;4.00;;;;;;;6.45;97.44;100985.69;5204553;28;20025;-71
2023/11/23 02:59:55;;;;;;;5.95;3.67;;;;;;;6.38;96.52;100981.44;5204987;28;20025;-73
2023/11/23 03:02:26;;;;;;;8.00;3.63;;;;;;;6.39;97.97;100978.81;5188822;28;20075;-72
2023/11/23 03:04:56;;;;;;;10.00;3.72;;;;;;;6.44;97.14;100979.63;5204227;28;20033;-72
2023/11/23 03:07:26;;;;;;;8.48;3.50;;;;;;;6.38;97.66;100965.84;5203975;28;20096;-72
2023/11/23 03:09:57;;;;;;;6.20;3.30;;;;;;;6.26;99.02;100981.59;5205040;28;20061;-72
2023/11/23 03:12:28;;;;;;;8.43;3.60;;;;;;;6.23;99.33;100974.69;5203364;28;20398;-72
2023/11/23 03:14:59;;;;;;;8.85;3.65;;;;;;;6.30;98.84;100958.19;5204076;28;20514;-73
2023/11/23 03:17:29;;;;;;;13.75;4.35;;;;;;;6.33;99.27;100962.47;5202428;28;20025;-72
2023/11/23 03:19:59;;;;;;;6.93;3.53;;;;;;;6.28;99.52;100959.06;5208549;28;20527;-72
2023/11/23 03:22:29;;;;;;;9.73;4.10;;;;;;;6.33;99.29;100952.97;5204959;28;20368;-72
2023/11/23 03:25:00;;;;;;;9.05;4.22;;;;;;;6.33;99.57;100958.16;5186634;28;20314;-72
2023/11/23 03:27:30;;;;;;;6.65;4.10;;;;;;;6.36;99.06;100947.72;5204724;28;20024;-72
2023/11/23 03:30:00;;;;;;;10.45;4.30;;;;;;;6.38;100.00;100955.47;5203344;28;20022;-72
2023/11/23 03:32:32;;;;;;;7.00;4.10;;;;;;;6.39;100.00;100946.84;5186359;28;20017;-73
2023/11/23 03:35:03;;;;;;;7.65;4.22;;;;;;;6.39;99.75;100960.66;5201964;28;20112;-73
2023/11/23 03:37:34;;;;;;;9.15;4.47;;;;;;;6.35;99.77;100947.72;5205419;28;20022;-73
2023/11/23 03:40:05;;;;;;;11.95;4.38;;;;;;;6.30;100.00;100946.94;5204180;28;20032;-73
2023/11/23 03:42:35;;;;;;;10.27;4.53;;;;;;;6.40;100.00;100956.34;5186972;28;20029;-72
2023/11/23 03:45:06;;;;;;;10.50;4.90;;;;;;;6.36;100.00;100939.94;5186493;28;20026;-72
2023/11/23 03:47:36;;;;;;;13.10;4.78;;;;;;;6.33;100.00;100936.50;5203113;28;20120;-72
2023/11/23 03:50:07;;;;;;;10.05;4.55;;;;;;;6.41;100.00;100919.97;5205974;28;20028;-72
2023/11/23 03:52:37;;;;;;;9.45;4.93;;;;;;;6.42;100.00;100921.69;5204470;28;20435;-73
2023/11/23 03:55:08;;;;;;;8.38;4.78;;;;;;;6.42;100.00;100921.69;5206101;28;20048;-73
2023/11/23 03:57:38;;;;;;;10.27;5.05;;;;;;;6.45;100.00;100908.66;5203868;28;20068;-73
2023/11/23 04:00:09;;;;;;;13.27;5.13;;;;;;;6.38;100.00;100908.75;5202759;28;20114;-72
2023/11/23 04:02:39;;;;;;;11.00;4.60;;;;;;;6.44;100.00;100906.09;5203698;28;20025;-72
2023/11/23 04:05:10;;;;;;;13.93;5.03;;;;;;;6.42;100.00;100897.47;5202894;28;20025;-72
2023/11/23 04:07:40;;;;;;;10.98;5.07;;;;;;;6.44;100.00;100898.31;5204306;28;20394;-72
2023/11/23 04:10:11;;;;;;;13.00;5.50;;;;;;;6.42;100.00;100894.88;5203777;28;20036;-72
2023/11/23 04:12:41;;;;;;;9.45;5.35;;;;;;;6.45;100.00;100892.22;5202874;28;20125;-72
2023/11/23 04:15:12;;;;;;;11.65;5.65;;;;;;;6.50;100.00;100898.22;5204189;28;20060;-73
2023/11/23 04:17:43;;;;;;;10.35;5.53;;;;;;;6.55;100.00;100891.19;5203934;28;20033;-69
2023/11/23 04:20:13;;;;;;;13.43;6.35;;;;;;;6.53;100.00;100891.25;5205553;28;20025;-70
2023/11/23 04:22:44;;;;;;;10.63;5.85;;;;;;;6.54;100.00;100892.09;5205175;28;20035;-72
2023/11/23 04:25:14;;;;;;;13.48;6.30;;;;;;;6.51;100.00;100889.53;5202776;28;20036;-70
2023/11/23 04:27:44;;;;;;;12.60;5.80;;;;;;;6.59;100.00;100887.72;5202106;28;20035;-71
2023/11/23 04:30:15;;;;;;;10.93;5.90;;;;;;;6.65;100.00;100903.19;5204004;28;20036;-69
2023/11/23 04:32:45;;;;;;;11.80;6.03;;;;;;;6.62;100.00;100905.84;5203164;28;20449;-73
2023/11/23 04:35:15;;;;;;;11.95;6.22;;;;;;;6.64;100.00;100899.75;5202833;28;20018;-70
2023/11/23 04:37:45;;;;;;;12.00;6.15;;;;;;;6.61;100.00;100911.91;5202797;28;20033;-72
2023/11/23 04:40:16;;;;;;;16.85;6.68;;;;;;;6.59;100.00;100898.94;5205375;28;20053;-71
2023/11/23 04:42:46;;;;;;;13.68;6.28;;;;;;;6.64;100.00;100902.34;5208310;28;20494;-72
2023/11/23 04:45:16;;;;;;;12.30;6.03;;;;;;;6.56;100.00;100893.78;5208911;28;20031;-72
2023/11/23 04:47:47;;;;;;;11.63;6.00;;;;;;;6.53;100.00;100888.66;5202678;28;20441;-72
2023/11/23 04:50:17;;;;;;;12.38;6.63;;;;;;;6.64;100.00;100891.09;5192212;28;20549;-69
2023/11/23 04:52:47;;;;;;;13.57;6.70;;;;;;;6.59;100.00;100879.91;5205101;28;20025;-73
2023/11/23 04:55:19;;;;;;;10.75;6.45;;;;;;;6.63;100.00;100879.81;5208266;28;20324;-72
2023/11/23 04:57:50;;;;;;;10.23;6.32;;;;;;;6.66;100.00;100884.13;5201004;28;20079;-73
2023/11/23 05:00:24;;;;;;;14.10;6.95;;;;;;;6.64;100.00;100870.31;5203407;28;20786;-70
2023/11/23 05:02:54;;;;;;;13.80;7.13;;;;;;;6.62;100.00;100872.91;5205837;28;20403;-73
2023/11/23 05:05:25;;;;;;;12.90;7.47;;;;;;;6.55;100.00;100868.72;5188255;28;20029;-71
2023/11/23 05:07:55;;;;;;;15.45;7.50;;;;;;;6.61;100.00;100859.97;5191401;28;20391;-72
2023/11/23 05:10:25;;;;;;;10.77;7.18;;;;;;;6.62;100.00;100872.91;5207004;28;20048;-73
2023/11/23 05:12:56;;;;;;;14.10;7.20;;;;;;;6.64;100.00;100870.31;5202072;28;20041;-73
2023/11/23 05:15:26;;;;;;;14.45;6.88;;;;;;;6.63;100.00;100863.41;5188140;28;20052;-73
2023/11/23 05:17:56;;;;;;;15.88;7.93;;;;;;;6.65;100.00;100867.72;5206583;28;20082;-73
2023/11/23 05:20:26;;;;;;;17.40;7.30;;;;;;;6.61;100.00;100855.63;5202451;28;20031;-72
2023/11/23 05:22:57;;;;;;;13.70;7.63;;;;;;;6.67;100.00;100855.56;5207518;28;20025;-72
2023/11/23 05:25:27;;;;;;;15.35;7.93;;;;;;;6.67;100.00;100849.47;5203693;28;20068;-72
2023/11/23 05:27:57;;;;;;;15.57;7.97;;;;;;;6.71;100.00;100856.34;5207048;28;20086;-73
2023/11/23 05:30:28;;;;;;;16.05;7.90;;;;;;;6.65;100.00;100864.25;5197691;28;20057;-73
2023/11/23 05:33:00;;;;;;;16.75;8.00;;;;;;;6.68;100.00;100851.19;5186872;28;20017;-73
2023/11/23 05:35:31;;;;;;;17.40;7.93;;;;;;;6.66;100.00;100843.44;5207116;28;20036;-71
2023/11/23 05:38:01;;;;;;;16.75;7.68;;;;;;;6.69;100.00;100842.53;5203702;28;20041;-73
2023/11/23 05:40:32;;;;;;;16.73;7.93;;;;;;;6.73;100.00;100854.59;5207902;28;20025;-73
2023/11/23 05:43:02;;;;;;;18.40;8.55;;;;;;;6.78;100.00;100847.59;5213278;28;20032;-72
2023/11/23 05:45:33;;;;;;;15.75;8.15;;;;;;;6.74;100.00;100843.34;5207202;28;20120;-73
2023/11/23 05:48:05;;;;;;;16.50;8.05;;;;;;;6.82;100.00;100834.53;5209916;28;20116;-73
2023/11/23 05:50:36;;;;;;;15.35;8.30;;;;;;;6.90;100.00;100831.81;5206203;28;20051;-72
2023/11/23 05:53:06;;;;;;;17.40;7.95;;;;;;;6.95;100.00;100830.00;5189519;28;20025;-72
2023/11/23 05:55:36;;;;;;;18.88;8.23;;;;;;;6.94;100.00;100836.91;5204439;28;20033;-73
2023/11/23 05:58:06;;;;;;;13.35;7.97;;;;;;;6.94;100.00;100849.06;5209099;28;20021;-73
2023/11/23 06:00:37;;;;;;;18.17;8.57;;;;;;;6.91;100.00;100833.53;5204378;28;20041;-73
2023/11/23 06:03:07;;;;;;;17.08;7.80;;;;;;;6.95;100.00;100835.19;5203399;28;20443;-73
2023/11/23 06:05:37;;;;;;;15.05;7.88;;;;;;;6.93;100.00;100832.59;5203250;28;20029;-73
2023/11/23 06:08:08;;;;;;;14.95;8.07;;;;;;;7.01;100.00;100830.75;5200603;28;20372;-73
2023/11/23 06:10:38;;;;;;;14.82;8.13;;;;;;;6.98;100.00;100829.94;5203280;28;20029;-72
2023/11/23 06:13:09;;;;;;;15.98;7.95;;;;;;;7.01;100.00;100825.56;5206762;28;20091;-73
2023/11/23 06:15:40;;;;;;;15.23;7.30;;;;;;;7.00;100.00;100828.16;5207218;28;20026;-72
2023/11/23 06:18:10;;;;;;;16.20;7.28;;;;;;;7.06;100.00;100815.06;5204146;28;20084;-73
2023/11/23 06:20:40;;;;;;;15.00;7.65;;;;;;;7.07;100.00;100820.25;5204388;28;20034;-71
2023/11/23 06:23:11;;;;;;;14.48;7.63;;;;;;;6.99;100.00;100806.53;5205688;28;20475;-72
2023/11/23 06:25:41;;;;;;;12.75;7.25;;;;;;;7.15;100.00;100799.31;5203643;28;20403;-72
2023/11/23 06:28:11;;;;;;;14.75;7.47;;;;;;;7.15;100.00;100796.72;5208539;28;20024;-73
2023/11/23 06:30:44;;;;;;;15.13;7.95;;;;;;;7.14;100.00;100802.78;5190912;28;20467;-73
2023/11/23 06:33:14;;;;;;;14.60;7.85;;;;;;;7.16;100.00;100804.50;5209322;28;20033;-72
2023/11/23 06:35:45;;;;;;;14.93;7.18;;;;;;;7.16;100.00;100793.22;5207695;28;20056;-73
2023/11/23 06:38:15;;;;;;;15.38;8.15;;;;;;;7.15;100.00;100787.19;5213104;28;20410;-69
2023/11/23 06:40:47;;;;;;;15.70;8.43;;;;;;;7.16;100.00;100790.63;5211202;28;20435;-73
2023/11/23 06:43:17;;;;;;;17.95;8.55;;;;;;;7.26;100.00;100781.78;5203588;28;20155;-71
2023/11/23 06:45:47;;;;;;;19.08;8.50;;;;;;;7.32;100.00;100774.72;5208130;28;20115;-74
2023/11/23 06:48:18;;;;;;;17.35;9.30;;;;;;;7.31;100.00;100776.47;5207547;28;20033;-71
2023/11/23 06:50:48;;;;;;;20.38;9.05;;;;;;;7.42;100.00;100771.06;5211665;28;20025;-69
2023/11/23 06:53:21;;;;;;;18.35;8.75;;;;;;;7.34;100.00;100768.59;5193866;28;20028;-72
2023/11/23 06:55:51;;;;;;;15.23;8.48;;;;;;;7.50;100.00;100769.16;5211072;28;20032;-72
2023/11/23 06:58:22;;;;;;;19.42;9.00;;;;;;;7.48;100.00;100766.59;5190553;28;20025;-73
2023/11/23 07:00:52;;;;;;;15.82;8.40;;;;;;;7.45;100.00;100758.84;5206594;28;20557;-72
2023/11/23 07:03:22;;;;;;;15.80;8.00;;;;;;;7.51;100.00;100750.91;5203344;28;20021;-72
2023/11/23 07:05:52;;;;;;;14.30;8.38;;;;;;;7.55;100.00;100756.94;5204372;28;20021;-73
2023/11/23 07:08:23;;;;;;;16.45;7.72;;;;;;;7.58;100.00;100752.53;5203093;28;20026;-73
2023/11/23 07:10:53;;;;;;;17.70;8.35;;;;;;;7.64;100.00;100752.38;5208358;28;20391;-73
2023/11/23 07:13:23;;;;;;;18.88;9.30;;;;;;;7.64;100.00;100762.78;5188476;28;20029;-73
2023/11/23 07:15:55;;;;;;;14.05;8.60;;;;;;;7.56;100.00;100749.06;5207029;28;20032;-73
2023/11/23 07:18:26;;;;;;;17.40;8.98;;;;;;;7.61;100.00;100757.66;5192595;28;20508;-71
2023/11/23 07:20:57;;;;;;;17.70;9.00;;;;;;;7.55;100.00;100757.75;5209080;28;20108;-72
2023/11/23 07:23:27;;;;;;;17.65;9.10;;;;;;;7.59;100.00;100754.22;5205003;28;20120;-73
2023/11/23 07:25:58;;;;;;;15.68;8.93;;;;;;;7.66;100.00;100771.41;5195291;28;20104;-72
2023/11/23 07:28:28;;;;;;;18.15;9.40;;;;;;;7.64;100.00;100761.91;5194406;28;20037;-72
2023/11/23 07:31:00;;;;;;;18.25;8.90;;;;;;;7.63;100.00;100761.09;5189211;28;23336;-73
2023/11/23 07:33:34;;;;;;;16.30;9.05;;;;;;;7.62;100.00;100754.16;5211963;28;20037;-72
2023/11/23 07:36:05;;;;;;;16.80;9.20;;;;;;;7.58;100.00;100755.13;5193463;28;20390;-72
2023/11/23 07:38:36;;;;;;;19.00;10.10;;;;;;;7.58;100.00;100741.25;5206037;28;20532;-73
2023/11/23 07:41:10;;;;;;;16.85;9.63;;;;;;;7.58;100.00;100736.06;5192274;28;20033;-73
2023/11/23 07:43:40;;;;;;;21.52;10.18;;;;;;;7.59;100.00;100732.56;5203580;28;20021;-68
2023/11/23 07:46:11;;;;;;;21.73;9.90;;;;;;;7.58;100.00;100723.91;5189937;28;20095;-73
2023/11/23 07:48:41;;;;;;;17.75;9.75;;;;;;;7.61;100.00;100716.03;5192497;28;20029;-68
2023/11/23 07:51:13;;;;;;;22.75;10.63;;;;;;;7.59;100.00;100710.03;5207349;28;20021;-72
2023/11/23 07:53:43;;;;;;;22.58;9.77;;;;;;;7.56;100.00;100710.06;5207777;28;20479;-74
2023/11/23 07:56:14;;;;;;;19.65;10.27;;;;;;;7.65;100.00;100696.00;5208194;28;20083;-74
2023/11/23 07:58:46;;;;;;;18.25;10.10;;;;;;;7.62;100.00;100704.75;5208017;28;20108;-74
2023/11/23 08:01:16;;;;;;;20.58;9.77;;;;;;;7.66;100.00;100703.78;5202847;28;20025;-72
2023/11/23 08:03:47;;;;;;;17.17;9.52;;;;;;;7.65;100.00;100686.47;5206055;28;20041;-74
2023/11/23 08:06:17;;;;;;;17.30;9.00;;;;;;;7.60;100.00;100693.53;5204200;28;20080;-71
2023/11/23 08:08:48;;;;;;;16.95;9.55;;;;;;;7.55;100.00;100690.16;5205308;28;20029;-73
2023/11/23 08:11:18;;;;;;;17.80;9.45;;;;;;;7.56;100.00;100691.84;5208122;28;20025;-72
2023/11/23 08:13:49;;;;;;;15.90;8.88;;;;;;;7.62;100.00;100678.75;5202677;28;20025;-74
2023/11/23 08:16:20;;;;;;;19.80;9.90;;;;;;;7.62;100.00;100675.28;5208376;28;20025;-73
2023/11/23 08:18:51;;;;;;;20.70;8.85;;;;;;;7.59;100.00;100655.41;5207888;28;20257;-74
2023/11/23 08:21:22;;;;;;;16.05;8.98;;;;;;;7.54;100.00;100666.81;5209016;28;20055;-74
2023/11/23 08:23:53;;;;;;;16.55;9.00;;;;;;;7.65;100.00;100660.47;5207554;28;20093;-74
2023/11/23 08:26:23;;;;;;;17.38;9.07;;;;;;;7.63;100.00;100662.25;5192408;28;20049;-73
2023/11/23 08:28:54;;;;;;;17.27;9.48;;;;;;;7.71;100.00;100657.72;5193618;28;20102;-73
2023/11/23 08:31:28;;;;;;;13.90;8.48;;;;;;;7.62;100.00;100657.06;5206984;28;20176;-70
2023/11/23 08:33:58;;;;;;;17.13;9.30;;;;;;;7.63;100.00;100661.38;5205726;28;20380;-73
2023/11/23 08:36:29;;;;;;;17.02;9.27;;;;;;;7.59;100.00;100663.22;5208120;28;20084;-73
2023/11/23 08:39:00;;;;;;;14.77;8.60;;;;;;;7.70;100.00;100662.97;5205505;28;20021;-73
2023/11/23 08:41:31;;;;;;;16.10;9.43;;;;;;;7.75;100.00;100661.97;5208482;28;20025;-74
2023/11/23 08:44:04;;;;;;;20.60;10.35;;;;;;;7.72;100.00;100658.59;5210020;28;20118;-74
2023/11/23 08:46:35;;;;;;;19.70;9.23;;;;;;;7.80;100.00;100654.91;5208414;28;20025;-74
2023/11/23 08:49:05;;;;;;;19.65;10.05;;;;;;;7.84;100.00;100659.16;5208370;28;20039;-74
2023/11/23 08:51:36;;;;;;;19.15;9.73;;;;;;;7.83;100.00;100659.19;5205851;28;20051;-74
2023/11/23 08:54:08;;;;;;;18.90;10.00;;;;;;;7.81;100.00;100653.16;5206133;28;20088;-74
2023/11/23 08:56:38;;;;;;;19.77;9.68;;;;;;;7.89;100.00;100652.09;5205319;28;20100;-74
2023/11/23 08:59:10;;;;;;;17.23;9.38;;;;;;;7.94;100.00;100642.44;5207888;28;20518;-74
2023/11/23 09:01:40;;;;;;;19.10;9.43;;;;;;;7.98;100.00;100633.66;5188649;28;20446;-74
2023/11/23 09:04:10;;;;;;;17.83;9.38;;;;;;;8.04;100.00;100630.06;5204078;28;20033;-75
2023/11/23 09:06:41;;;;;;;15.38;9.23;;;;;;;8.04;100.00;100614.44;5206853;28;20025;-74
2023/11/23 09:09:12;;;;;;;16.73;8.32;;;;;;;8.02;100.00;100603.22;5188715;28;20053;-73
2023/11/23 09:11:43;;;;;;;19.38;8.68;;;;;;;8.03;100.00;100610.16;5204621;28;20029;-74
2023/11/23 09:14:13;;;;;;;16.52;8.55;;;;;;;8.20;100.00;100601.03;5205591;28;20032;-74
2023/11/23 09:16:44;;;;;;;15.43;8.20;;;;;;;8.22;100.00;100588.81;5207993;28;20032;-74
2023/11/23 09:19:14;;;;;;;13.38;7.70;;;;;;;8.23;100.00;100600.94;5194450;28;20040;-74
2023/11/23 09:21:47;;;;;;;15.45;7.60;;;;;;;8.29;100.00;100582.59;5209078;28;20450;-75
2023/11/23 09:24:17;;;;;;;13.43;7.53;;;;;;;8.30;100.00;100562.59;5209086;28;20380;-72
2023/11/23 09:26:47;;;;;;;12.35;7.10;;;;;;;8.37;100.00;100565.00;5209373;28;20172;-74
2023/11/23 09:29:18;;;;;;;13.38;7.22;;;;;;;8.35;100.00;100581.59;5208244;28;20374;-71
2023/11/23 09:31:48;;;;;;;11.38;7.18;;;;;;;8.41;100.00;100589.22;5207919;28;20029;-74
2023/11/23 09:34:18;;;;;;;12.52;7.22;;;;;;;8.43;100.00;100590.91;5209597;28;20025;-71
2023/11/23 09:36:49;;;;;;;12.90;7.30;;;;;;;8.49;100.00;100590.72;5208436;28;20028;-74
2023/11/23 09:39:19;;;;;;;17.73;6.70;;;;;;;8.50;100.00;100582.00;5211507;28;20039;-73
2023/11/23 09:41:51;;;;;;;11.82;7.22;;;;;;;8.50;100.00;100584.63;5209543;28;20040;-75
2023/11/23 09:44:25;;;;;;;11.55;6.82;;;;;;;8.53;100.00;100589.72;5206305;28;20056;-74
2023/11/23 09:46:57;;;;;;;12.48;7.00;;;;;;;8.65;100.00;100579.00;5207258;28;20029;-73
2023/11/23 09:49:27;;;;;;;11.93;6.78;;;;;;;8.63;100.00;100570.38;5208663;28;20040;-74
2023/11/23 09:52:01;;;;;;;12.70;6.80;;;;;;;8.66;100.00;100565.06;5208385;28;20033;-74
2023/11/23 09:54:32;;;;;;;12.45;6.72;;;;;;;8.70;100.00;100568.44;5207582;28;20340;-74
2023/11/23 09:57:04;;;;;;;12.00;6.68;;;;;;;8.65;100.00;100571.19;5207682;28;20025;-74
2023/11/23 09:59:35;;;;;;;15.27;6.65;;;;;;;8.69;100.00;100558.94;5208750;28;20032;-74
2023/11/23 10:02:09;;;;;;;11.93;6.18;;;;;;;8.69;100.00;100567.59;5206996;28;20021;-74
2023/11/23 10:04:39;;;;;;;12.52;6.97;;;;;;;8.71;100.00;100555.34;5190973;28;20557;-71
2023/11/23 10:07:11;;;;;;;11.48;6.30;;;;;;;8.70;100.00;100538.03;5208723;28;20095;-73
2023/11/23 10:09:43;;;;;;;11.43;6.68;;;;;;;8.75;100.00;100530.91;5207645;28;20075;-74
2023/11/23 10:12:14;;;;;;;10.18;6.45;;;;;;;8.71;100.00;100531.91;5190666;28;20022;-74
2023/11/23 10:14:44;;;;;;;10.20;6.32;;;;;;;8.68;100.00;100507.69;5207123;28;20040;-74
2023/11/23 10:17:14;;;;;;;10.52;6.85;;;;;;;8.74;100.00;100513.59;5207457;28;20110;-74
2023/11/23 10:19:44;;;;;;;12.05;6.82;;;;;;;8.85;100.00;100492.41;5209129;28;20470;-74
2023/11/23 10:22:15;;;;;;;12.73;6.40;;;;;;;8.92;100.00;100492.19;5206869;28;20029;-74
2023/11/23 10:24:46;;;;;;;11.05;7.13;;;;;;;8.87;100.00;100486.28;5207461;28;20108;-74
2023/11/23 10:27:19;;;;;;;11.48;6.88;;;;;;;8.97;100.00;100492.94;5207099;28;20024;-74
2023/11/23 10:29:49;;;;;;;12.18;6.72;;;;;;;8.93;100.00;100480.88;5207395;28;20078;-74
2023/11/23 10:32:20;;;;;;;12.10;6.63;;;;;;;9.04;100.00;100486.63;5190311;28;20483;-74
2023/11/23 10:34:53;;;;;;;12.07;6.82;;;;;;;9.14;100.00;100482.84;5208203;28;20029;-74
2023/11/23 10:37:23;;;;;;;13.38;6.25;;;;;;;9.13;100.00;100487.19;5207350;28;20510;-74
2023/11/23 10:39:54;;;;;;;10.55;6.28;;;;;;;9.20;100.00;100490.44;5207467;28;20120;-74
2023/11/23 10:42:24;;;;;;;10.30;6.15;;;;;;;9.27;100.00;100471.97;5190502;28;20052;-71
2023/11/23 10:44:55;;;;;;;10.95;6.95;;;;;;;9.28;100.00;100470.22;5207434;28;20055;-75
2023/11/23 10:47:29;;;;;;;11.30;6.75;;;;;;;9.38;100.00;100461.19;5205962;28;20029;-73
2023/11/23 10:50:00;;;;;;;10.73;6.80;;;;;;;9.44;100.00;100472.28;5189727;28;20116;-73
2023/11/23 10:52:35;;;;;;;11.02;6.80;;;;;;;9.57;100.00;100463.16;5206089;28;20100;-74
2023/11/23 10:55:05;;;;;;;13.53;6.80;;;;;;;9.61;100.00;100453.44;5205673;28;20029;-74
2023/11/23 10:57:41;;;;;;;13.30;6.70;;;;;;;9.56;100.00;100439.69;5207449;28;20025;-74
2023/11/23 11:00:23;;;;;;;;;;;;;;;9.56;100.00;100450.13;5198882;28;20022;-74
2023/11/23 11:02:59;;;;;;;13.32;6.75;;;;;;;9.70;100.00;100434.88;5201559;28;20389;-75
2023/11/23 11:05:31;;;;;;;11.85;6.93;;;;;;;9.73;100.00;100426.94;5202128;28;20037;-75
2023/11/23 11:08:07;;;;;;;10.45;6.88;;;;;;;9.90;100.00;100421.97;5184146;28;20021;-74
2023/11/23 11:10:40;;;;;;;10.45;6.95;;;;;;;9.93;100.00;100414.03;5200238;28;20037;-74
2023/11/23 11:13:12;;;;;;;10.43;6.38;;;;;;;10.08;100.00;100416.13;5184436;28;20031;-73
2023/11/23 11:16:06;;;;;;;12.13;7.35;;;;;;;10.14;100.00;100408.09;5204691;28;20037;-74
2023/11/23 11:18:38;;;;;;;11.90;6.13;;;;;;;10.21;100.00;100399.13;5206227;28;20021;-74
2023/11/23 11:21:13;;;;;;;11.93;6.55;;;;;;;10.21;100.00;100406.97;5203081;28;20619;-74
2023/11/23 11:23:49;;;;;;;9.52;6.35;;;;;;;10.22;100.00;100390.38;5205028;28;20033;-75
2023/11/23 11:26:30;;;;;;;10.43;5.85;;;;;;;10.27;100.00;100378.00;5206223;28;20025;-71
2023/11/23 11:29:05;;;;;;;8.18;5.55;;;;;;;10.31;100.00;100366.53;5208177;28;20037;-74
2023/11/23 11:31:39;;;;;;;10.15;5.82;;;;;;;10.36;100.00;100362.00;5189597;28;20017;-75
2023/11/23 11:34:17;;;;;;;12.32;6.38;;;;;;;10.38;100.00;100366.22;5200595;28;20284;-75
2023/11/23 11:36:56;;;;;;;9.02;5.43;;;;;;;10.40;100.00;100356.59;5204512;28;20485;-73
2023/11/23 11:39:39;;;;;;;9.65;5.70;;;;;;;10.40;100.00;100343.53;5202601;28;20030;-74